Time;durP1;ratioP1;P1;durP2;ratioP2;P2;SDS_P1;SDS_P2;PMS_P1;PMS_P2;Temp;Humidity;BMP_temperature;BMP_pressure;BME280_temperature;BME280_humidity;BME280_pressure;Samples;Min_cycle;Max_cycle;Signal;HPM_P1;HPM_P2
2022/01/15 00:01:22;;;;;;;9.90;4.20;;;4.70;90.30;;;;;;1905146;75;21019;-42
2022/01/15 00:03:51;;;;;;;10.78;5.60;;;4.80;90.10;;;;;;1905138;75;21081;-42
2022/01/15 00:06:21;;;;;;;9.38;5.47;;;4.80;90.10;;;;;;1905248;75;21007;-43
2022/01/15 00:08:50;;;;;;;7.67;5.17;;;4.80;89.60;;;;;;1905239;75;21081;-43
2022/01/15 00:11:19;;;;;;;7.22;5.33;;;4.80;89.90;;;;;;1905132;75;21097;-42
2022/01/15 00:13:57;;;;;;;5.83;3.92;;;4.90;90.00;;;;;;1905407;75;21069;-43
2022/01/15 00:16:44;;;;;;;5.67;3.70;;;4.80;90.00;;;;;;1903530;74;21093;-42
2022/01/15 00:19:09;;;;;;;7.58;4.60;;;4.90;90.00;;;;;;1904040;74;21110;-43
2022/01/15 00:21:37;;;;;;;6.53;4.37;;;4.90;90.10;;;;;;1905537;75;21085;-42
2022/01/15 00:24:07;;;;;;;6.35;4.08;;;4.90;90.10;;;;;;1905223;75;21004;-43
2022/01/15 00:26:37;;;;;;;7.25;4.22;;;4.90;90.10;;;;;;1905292;75;21023;-43
2022/01/15 00:29:06;;;;;;;9.78;5.20;;;4.90;90.10;;;;;;1905181;74;21168;-43
2022/01/15 00:31:37;;;;;;;4.58;3.42;;;4.90;90.10;;;;;;1905169;75;21090;-42
2022/01/15 00:34:06;;;;;;;8.58;5.05;;;4.90;90.20;;;;;;1905277;75;21023;-43
2022/01/15 00:36:35;;;;;;;5.12;3.83;;;4.80;90.30;;;;;;1905424;75;21011;-42
2022/01/15 00:39:04;;;;;;;9.48;4.78;;;4.80;90.40;;;;;;1905267;75;20996;-42
2022/01/15 00:41:34;;;;;;;5.67;3.95;;;4.80;90.30;;;;;;1905277;74;21101;-43
2022/01/15 00:44:03;;;;;;;8.00;3.95;;;4.80;90.40;;;;;;1905240;75;21031;-42
2022/01/15 00:46:33;;;;;;;9.00;4.45;;;4.80;90.30;;;;;;1905337;75;21011;-43
2022/01/15 00:49:02;;;;;;;7.95;4.37;;;4.80;90.40;;;;;;1905272;75;21085;-43
2022/01/15 00:51:31;;;;;;;5.62;3.77;;;4.80;90.40;;;;;;1905268;75;21446;-43
2022/01/15 00:54:01;;;;;;;6.85;4.00;;;4.80;90.20;;;;;;1905221;75;21051;-44
2022/01/15 00:56:30;;;;;;;10.60;4.37;;;4.70;89.70;;;;;;1905258;75;21160;-45
2022/01/15 00:59:00;;;;;;;6.53;3.98;;;4.70;89.40;;;;;;1905174;75;21066;-43
2022/01/15 01:01:29;;;;;;;4.92;3.37;;;4.60;89.10;;;;;;1905384;75;21137;-43
2022/01/15 01:03:58;;;;;;;5.90;3.67;;;4.60;89.50;;;;;;1905275;75;21023;-42
2022/01/15 01:06:28;;;;;;;6.03;3.55;;;4.60;89.40;;;;;;1905337;75;21015;-43
2022/01/15 01:08:57;;;;;;;6.72;3.67;;;4.50;89.50;;;;;;1905253;75;21011;-43
2022/01/15 01:11:42;;;;;;;4.92;3.75;;;4.50;89.60;;;;;;1905247;75;21027;-43
2022/01/15 01:22:52;;;;;;;6.05;3.25;;;4.50;88.70;;;;;;1905392;75;21105;-43
2022/01/15 01:24:51;;;;;;;8.25;4.28;;;4.40;89.10;;;;;;1903211;74;21023;-43
2022/01/15 01:27:27;;;;;;;4.37;3.17;;;4.40;88.70;;;;;;1905375;75;21031;-42
2022/01/15 01:30:09;;;;;;;7.62;3.60;;;4.40;88.70;;;;;;1904807;74;21028;-42
2022/01/15 01:35:06;;;;;;;6.93;4.70;;;4.40;88.20;;;;;;1924927;74;21092;-42
2022/01/15 01:37:36;;;;;;;5.95;4.08;;;4.40;87.90;;;;;;1923879;74;21065;-41
2022/01/15 01:40:17;;;;;;;5.22;3.77;;;4.40;87.30;;;;;;1923948;74;21472;-43
2022/01/15 01:42:43;;;;;;;6.05;3.37;;;4.40;87.70;;;;;;1922441;74;21038;-43
2022/01/15 01:45:14;;;;;;;6.58;4.55;;;4.40;86.20;;;;;;1924401;74;21031;-42
2022/01/15 01:47:44;;;;;;;6.58;4.97;;;4.50;85.60;;;;;;1924944;74;21015;-42
2022/01/15 01:50:25;;;;;;;4.65;3.75;;;4.50;85.10;;;;;;1924570;74;21023;-43
2022/01/15 01:52:59;;;;;;;4.58;3.83;;;4.50;85.00;;;;;;1924862;74;21051;-43
2022/01/15 01:55:29;;;;;;;12.82;4.15;;;4.50;85.00;;;;;;1924641;74;21076;-42
2022/01/15 01:57:59;;;;;;;3.33;3.00;;;4.50;85.50;;;;;;1924665;74;20991;-43
2022/01/15 02:00:30;;;;;;;8.53;4.30;;;4.40;85.70;;;;;;1924479;74;21022;-42
2022/01/15 02:03:01;;;;;;;6.92;4.67;;;4.40;84.80;;;;;;1924674;74;21076;-43
2022/01/15 02:05:30;;;;;;;7.65;4.92;;;4.40;85.80;;;;;;1924739;74;21042;-42
2022/01/15 02:07:59;;;;;;;8.48;4.33;;;4.40;85.60;;;;;;1924668;74;21034;-42
2022/01/15 02:10:29;;;;;;;5.45;3.55;;;4.40;85.80;;;;;;1924682;74;21034;-42
2022/01/15 02:13:00;;;;;;;5.55;4.08;;;4.30;86.00;;;;;;1924613;74;20998;-43
2022/01/15 02:15:29;;;;;;;9.05;4.87;;;4.20;85.90;;;;;;1924657;74;21489;-44
2022/01/15 02:17:58;;;;;;;5.87;3.98;;;4.20;85.20;;;;;;1924629;74;21080;-44
2022/01/15 02:25:58;;;;;;;3.70;2.35;;;4.00;83.20;;;;;;1924700;74;21030;-44
2022/01/15 02:28:32;;;;;;;3.40;2.42;;;3.90;84.00;;;;;;1924801;74;21418;-42
2022/01/15 02:31:05;;;;;;;3.33;2.12;;;3.90;84.20;;;;;;1924718;74;21018;-43
2022/01/15 02:33:35;;;;;;;5.17;2.70;;;3.80;83.20;;;;;;1907250;74;21063;-43
2022/01/15 02:36:07;;;;;;;4.87;2.42;;;3.80;82.80;;;;;;1905266;75;21157;-43
2022/01/15 02:38:38;;;;;;;4.12;2.10;;;3.80;83.40;;;;;;1905246;74;21089;-42
2022/01/15 02:41:08;;;;;;;1.92;1.40;;;3.70;83.30;;;;;;1905247;74;21043;-43
2022/01/15 02:43:38;;;;;;;2.90;1.47;;;3.70;82.60;;;;;;1905267;75;21024;-45
2022/01/15 02:46:34;;;;;;;4.90;2.00;;;3.70;81.80;;;;;;1905332;75;21093;-42
2022/01/15 02:48:54;;;;;;;1.40;1.07;;;3.60;80.80;;;;;;1904168;74;21105;-42
2022/01/15 02:51:26;;;;;;;1.60;1.30;;;3.60;81.00;;;;;;1905388;75;21007;-43
2022/01/15 02:53:56;;;;;;;2.50;0.95;;;3.60;79.70;;;;;;1905426;75;21011;-43
2022/01/15 02:56:34;;;;;;;3.08;1.05;;;3.50;80.50;;;;;;1905393;75;21082;-43
2022/01/15 02:59:05;;;;;;;3.17;1.10;;;3.50;80.10;;;;;;1905189;75;21019;-43
2022/01/15 03:01:36;;;;;;;4.70;1.07;;;3.50;80.20;;;;;;1905246;74;21077;-45
2022/01/15 03:04:05;;;;;;;5.17;2.30;;;3.40;80.40;;;;;;1905257;75;21081;-43
2022/01/15 03:06:35;;;;;;;1.30;1.20;;;3.40;80.60;;;;;;1905193;75;21019;-43
2022/01/15 03:09:04;;;;;;;2.70;1.02;;;3.40;79.90;;;;;;1905199;75;21023;-43
2022/01/15 03:11:34;;;;;;;3.37;0.75;;;3.40;80.60;;;;;;1905172;75;21019;-43
2022/01/15 03:14:03;;;;;;;6.03;1.25;;;3.30;79.60;;;;;;1905191;74;21077;-43
2022/01/15 03:16:33;;;;;;;1.77;1.25;;;3.30;80.10;;;;;;1905193;75;21097;-44
2022/01/15 03:19:02;;;;;;;3.60;1.00;;;3.30;79.20;;;;;;1905172;75;21019;-44
2022/01/15 03:21:31;;;;;;;1.10;1.00;;;3.30;78.60;;;;;;1905314;75;21063;-42
2022/01/15 03:24:01;;;;;;;3.98;1.10;;;3.20;78.90;;;;;;1905238;74;21119;-42
2022/01/15 03:26:30;;;;;;;1.30;0.95;;;3.20;77.90;;;;;;1905204;74;21085;-43
2022/01/15 03:28:59;;;;;;;1.17;1.12;;;3.20;78.80;;;;;;1905208;75;21099;-43
2022/01/15 03:31:29;;;;;;;1.87;0.82;;;3.20;78.70;;;;;;1905275;75;21015;-42
2022/01/15 03:33:58;;;;;;;1.70;1.02;;;3.10;78.50;;;;;;1921360;74;21050;-44
2022/01/15 03:36:28;;;;;;;1.52;0.80;;;3.10;78.30;;;;;;1924551;74;21086;-43
2022/01/15 03:38:57;;;;;;;1.07;1.02;;;3.10;78.80;;;;;;1924719;74;21035;-43
2022/01/15 03:41:27;;;;;;;2.12;0.90;;;3.10;78.90;;;;;;1924546;74;21023;-43
2022/01/15 03:43:56;;;;;;;1.62;0.95;;;3.10;79.00;;;;;;1924666;74;21014;-43
2022/01/15 03:46:26;;;;;;;1.98;0.93;;;3.00;78.90;;;;;;1924545;74;21453;-43
2022/01/15 03:48:55;;;;;;;0.80;0.70;;;3.00;79.30;;;;;;1924511;74;21014;-42
2022/01/15 03:51:24;;;;;;;0.62;0.60;;;3.00;79.60;;;;;;1924540;74;21068;-43
2022/01/15 03:53:54;;;;;;;1.00;0.80;;;3.00;79.80;;;;;;1924743;74;21097;-42
2022/01/15 03:56:23;;;;;;;1.90;0.90;;;3.00;79.90;;;;;;1924618;74;21084;-42
2022/01/15 03:58:52;;;;;;;2.17;1.45;;;2.90;79.90;;;;;;1924517;74;21085;-43
2022/01/15 04:01:22;;;;;;;1.00;0.90;;;2.90;80.40;;;;;;1924476;74;21101;-42
2022/01/15 04:03:51;;;;;;;2.27;1.05;;;2.90;80.80;;;;;;1924672;74;21026;-43
2022/01/15 04:06:20;;;;;;;1.50;1.40;;;2.90;81.20;;;;;;1924717;74;21015;-42
2022/01/15 04:08:49;;;;;;;1.17;1.05;;;2.90;82.50;;;;;;1924772;74;21143;-44
2022/01/15 04:11:18;;;;;;;2.00;1.50;;;2.90;83.10;;;;;;1924681;74;20999;-42
2022/01/15 04:13:48;;;;;;;2.37;1.60;;;2.90;83.00;;;;;;1924696;74;21043;-43
2022/01/15 04:16:17;;;;;;;1.35;1.05;;;2.90;82.90;;;;;;1924804;74;21096;-43
2022/01/15 04:18:46;;;;;;;2.33;1.62;;;2.90;82.50;;;;;;1924561;74;20995;-43
2022/01/15 04:21:16;;;;;;;3.72;1.55;;;2.90;82.40;;;;;;1924636;74;21100;-44
2022/01/15 04:23:45;;;;;;;3.77;2.08;;;2.90;82.10;;;;;;1924617;74;21061;-44
2022/01/15 04:26:15;;;;;;;2.27;1.25;;;2.90;82.00;;;;;;1924759;74;21018;-43
2022/01/15 04:28:44;;;;;;;1.72;1.30;;;2.90;81.90;;;;;;1924758;74;21179;-42
2022/01/15 04:31:14;;;;;;;2.45;1.35;;;2.90;81.80;;;;;;1924730;74;21023;-42
2022/01/15 04:33:43;;;;;;;8.68;1.75;;;2.90;82.00;;;;;;1924650;74;21050;-42
2022/01/15 04:36:12;;;;;;;1.22;0.90;;;2.80;82.20;;;;;;1924718;74;21085;-44
2022/01/15 04:38:43;;;;;;;1.60;1.50;;;2.80;82.20;;;;;;1924591;74;21049;-42
2022/01/15 04:41:12;;;;;;;3.80;1.30;;;2.80;82.50;;;;;;1924644;74;21039;-43
2022/01/15 04:43:41;;;;;;;3.50;1.70;;;2.80;82.50;;;;;;1924723;74;21062;-42
2022/01/15 04:46:11;;;;;;;1.62;1.22;;;2.80;82.60;;;;;;1924697;74;20995;-44
2022/01/15 04:48:40;;;;;;;3.30;1.70;;;2.80;82.70;;;;;;1924743;74;21096;-43
2022/01/15 04:51:09;;;;;;;2.55;1.55;;;2.70;82.70;;;;;;1924641;74;21015;-44
2022/01/15 04:53:39;;;;;;;2.42;1.52;;;2.70;82.20;;;;;;1924583;74;21011;-44
2022/01/15 04:56:08;;;;;;;1.42;1.32;;;2.70;82.30;;;;;;1924669;74;21089;-44
2022/01/15 04:58:37;;;;;;;2.85;1.85;;;2.70;82.70;;;;;;1924715;74;21018;-43
2022/01/15 05:01:07;;;;;;;3.10;1.25;;;2.70;82.30;;;;;;1924643;74;21099;-43
2022/01/15 05:03:36;;;;;;;1.70;1.32;;;2.70;82.20;;;;;;1924707;74;21027;-43
2022/01/15 05:06:05;;;;;;;3.47;1.80;;;2.70;82.10;;;;;;1924694;74;21054;-44
2022/01/15 05:08:35;;;;;;;2.30;1.02;;;2.70;82.40;;;;;;1924723;74;21132;-43
2022/01/15 05:11:13;;;;;;;2.58;1.37;;;2.70;82.30;;;;;;1924587;74;21030;-43
2022/01/15 05:13:36;;;;;;;2.62;1.57;;;2.70;82.30;;;;;;1923679;74;21023;-43
2022/01/15 05:16:06;;;;;;;1.30;1.20;;;2.70;82.60;;;;;;1924625;74;21018;-43
2022/01/15 05:18:35;;;;;;;1.40;0.90;;;2.80;82.10;;;;;;1924638;74;21018;-44
2022/01/15 05:21:04;;;;;;;3.00;1.52;;;2.80;81.50;;;;;;1924606;74;21086;-44
2022/01/15 05:23:34;;;;;;;2.25;1.30;;;2.80;81.30;;;;;;1924678;74;21104;-43
2022/01/15 05:26:03;;;;;;;1.92;1.17;;;2.80;81.40;;;;;;1924624;74;21030;-44
2022/01/15 05:28:33;;;;;;;5.40;1.35;;;2.80;81.00;;;;;;1924550;74;21084;-43
2022/01/15 05:31:02;;;;;;;1.45;1.10;;;2.80;80.90;;;;;;1924566;74;21058;-44
2022/01/15 05:33:33;;;;;;;4.40;1.67;;;2.90;80.70;;;;;;1921847;74;21185;-43
2022/01/15 05:36:03;;;;;;;6.62;1.92;;;2.90;80.50;;;;;;1905356;75;21035;-43
2022/01/15 05:38:32;;;;;;;1.22;1.05;;;2.90;80.60;;;;;;1905291;75;21552;-43
2022/01/15 05:41:02;;;;;;;5.50;1.42;;;2.90;80.00;;;;;;1905237;75;21055;-43
2022/01/15 05:43:31;;;;;;;1.75;1.57;;;2.90;80.40;;;;;;1905200;75;21027;-43
2022/01/15 05:46:01;;;;;;;2.35;1.02;;;2.90;80.50;;;;;;1905367;75;21007;-45
2022/01/15 05:48:30;;;;;;;4.92;1.85;;;2.90;80.40;;;;;;1905305;75;21019;-45
2022/01/15 05:51:00;;;;;;;3.42;1.90;;;2.90;80.50;;;;;;1905354;74;21085;-43
2022/01/15 05:53:29;;;;;;;1.95;1.25;;;2.90;80.50;;;;;;1905257;75;21086;-44
2022/01/15 05:55:58;;;;;;;3.02;1.40;;;3.00;80.90;;;;;;1905294;75;21007;-43
2022/01/15 05:58:28;;;;;;;2.25;1.20;;;3.00;80.60;;;;;;1905145;75;21081;-43
2022/01/15 06:00:57;;;;;;;3.22;1.30;;;3.00;80.30;;;;;;1905295;75;21141;-43
2022/01/15 06:03:26;;;;;;;2.37;1.55;;;3.00;80.60;;;;;;1905299;75;21015;-43
2022/01/15 06:05:55;;;;;;;2.17;0.80;;;3.00;80.70;;;;;;1905354;74;21007;-43
2022/01/15 06:08:24;;;;;;;4.83;1.10;;;3.00;80.40;;;;;;1905206;75;21085;-43
2022/01/15 06:10:54;;;;;;;4.70;1.60;;;3.00;81.00;;;;;;1905208;75;21117;-43
2022/01/15 06:13:23;;;;;;;3.00;1.15;;;3.00;81.00;;;;;;1905235;75;21023;-44
2022/01/15 06:15:52;;;;;;;4.25;1.50;;;3.00;80.70;;;;;;1905264;75;21023;-43
2022/01/15 06:18:22;;;;;;;3.33;2.25;;;3.00;80.20;;;;;;1904994;75;21066;-43
2022/01/15 06:20:51;;;;;;;2.80;1.20;;;3.00;79.90;;;;;;1905293;75;21015;-44
2022/01/15 06:23:21;;;;;;;0.55;0.55;;;3.00;80.30;;;;;;1905302;75;21090;-43
2022/01/15 06:25:50;;;;;;;7.40;1.75;;;3.00;80.40;;;;;;1905357;75;21019;-43
2022/01/15 06:28:19;;;;;;;1.50;1.00;;;3.00;80.20;;;;;;1905096;75;21019;-44
2022/01/15 06:30:48;;;;;;;1.90;1.22;;;3.10;80.30;;;;;;1905167;75;21015;-44
2022/01/15 06:33:18;;;;;;;2.47;1.40;;;3.00;79.80;;;;;;1905263;74;21403;-44
2022/01/15 06:35:47;;;;;;;4.97;1.70;;;3.10;80.10;;;;;;1905272;74;21042;-44
2022/01/15 06:38:17;;;;;;;0.75;0.75;;;3.00;80.00;;;;;;1905164;75;20996;-43
2022/01/15 06:40:46;;;;;;;1.47;1.07;;;3.00;79.30;;;;;;1905182;75;21141;-43
2022/01/15 06:43:16;;;;;;;0.75;0.75;;;3.00;79.60;;;;;;1905192;75;21023;-44
2022/01/15 06:45:45;;;;;;;6.12;1.25;;;3.00;79.90;;;;;;1905200;75;21024;-44
2022/01/15 06:48:14;;;;;;;3.92;1.02;;;3.10;80.50;;;;;;1905117;75;21015;-44
2022/01/15 06:50:44;;;;;;;1.15;0.98;;;3.10;79.90;;;;;;1905193;75;21027;-43
2022/01/15 06:53:13;;;;;;;2.55;1.45;;;3.10;79.80;;;;;;1905274;75;21089;-43
2022/01/15 06:55:42;;;;;;;0.80;0.80;;;3.10;80.50;;;;;;1905199;75;21140;-43
2022/01/15 06:58:12;;;;;;;2.85;1.17;;;3.10;79.90;;;;;;1905133;75;21152;-43
2022/01/15 07:00:42;;;;;;;1.35;0.90;;;3.10;80.30;;;;;;1905093;75;21077;-44
2022/01/15 07:03:11;;;;;;;2.92;1.32;;;3.10;80.20;;;;;;1905205;75;21019;-44
2022/01/15 07:05:40;;;;;;;7.33;0.95;;;3.10;80.20;;;;;;1905207;75;21019;-43
2022/01/15 07:08:10;;;;;;;2.58;1.02;;;3.10;80.40;;;;;;1905326;75;21043;-42
2022/01/15 07:10:41;;;;;;;3.80;1.42;;;3.10;80.60;;;;;;1905169;75;20997;-44
2022/01/15 07:13:11;;;;;;;3.45;1.42;;;3.10;80.30;;;;;;1905432;75;21101;-43
2022/01/15 07:15:40;;;;;;;3.05;1.07;;;3.10;80.50;;;;;;1905482;75;21121;-43
2022/01/15 07:18:10;;;;;;;4.92;1.30;;;3.10;80.70;;;;;;1905446;75;21112;-43
2022/01/15 07:20:39;;;;;;;2.20;1.20;;;3.10;80.50;;;;;;1905361;74;21027;-44
2022/01/15 07:23:09;;;;;;;5.20;1.57;;;3.10;80.10;;;;;;1905315;74;21032;-43
2022/01/15 07:25:38;;;;;;;2.45;1.47;;;3.10;80.20;;;;;;1905336;74;21031;-42
2022/01/15 07:28:07;;;;;;;2.58;1.30;;;3.10;80.60;;;;;;1905315;75;21086;-43
2022/01/15 07:30:37;;;;;;;2.52;1.10;;;3.10;80.30;;;;;;1905345;75;21040;-43
2022/01/15 07:33:06;;;;;;;4.58;1.50;;;3.10;80.10;;;;;;1905257;75;21081;-43
2022/01/15 07:35:35;;;;;;;3.60;1.20;;;3.10;80.00;;;;;;1914378;74;21118;-44
2022/01/15 07:38:05;;;;;;;5.60;1.45;;;3.10;80.50;;;;;;1924689;74;21089;-42
2022/01/15 07:40:35;;;;;;;7.15;1.57;;;3.20;80.40;;;;;;1924726;74;21022;-45
2022/01/15 07:43:05;;;;;;;2.22;1.65;;;3.20;80.00;;;;;;1924850;74;21145;-44
2022/01/15 07:45:35;;;;;;;1.25;1.05;;;3.20;80.10;;;;;;1924853;74;21136;-46
2022/01/15 07:48:04;;;;;;;2.08;0.93;;;3.30;79.30;;;;;;1924886;74;21023;-43
2022/01/15 07:50:34;;;;;;;1.82;1.10;;;3.30;79.90;;;;;;1924776;74;20999;-44
2022/01/15 07:53:03;;;;;;;1.67;1.10;;;3.30;79.30;;;;;;1924731;74;21026;-42
2022/01/15 07:55:33;;;;;;;2.92;1.30;;;3.30;78.70;;;;;;1924770;74;21062;-42
2022/01/15 07:58:04;;;;;;;2.00;1.60;;;3.30;78.60;;;;;;1924793;74;21054;-45
2022/01/15 08:00:33;;;;;;;2.42;1.52;;;3.30;79.10;;;;;;1924688;74;21128;-45
2022/01/15 08:03:03;;;;;;;8.13;1.85;;;3.30;78.10;;;;;;1924785;74;21050;-43
2022/01/15 08:05:32;;;;;;;1.57;1.12;;;3.30;79.30;;;;;;1925002;74;21097;-43
2022/01/15 08:08:02;;;;;;;1.50;1.40;;;3.30;79.40;;;;;;1924767;74;21045;-44
2022/01/15 08:10:31;;;;;;;4.83;1.62;;;3.30;79.30;;;;;;1924907;74;21080;-43
2022/01/15 08:13:01;;;;;;;6.47;1.30;;;3.30;79.20;;;;;;1924767;74;21084;-42
2022/01/15 08:15:31;;;;;;;2.62;1.25;;;3.30;79.00;;;;;;1924724;74;21034;-42
2022/01/15 08:18:01;;;;;;;14.28;2.15;;;3.40;78.60;;;;;;1924717;74;20998;-43
2022/01/15 08:20:30;;;;;;;4.83;2.10;;;3.40;78.50;;;;;;1924789;74;21051;-43
2022/01/15 08:23:00;;;;;;;2.45;1.30;;;3.40;77.90;;;;;;1924678;74;21081;-43
2022/01/15 08:25:30;;;;;;;2.90;1.30;;;3.40;78.10;;;;;;1924783;74;21023;-43
2022/01/15 08:28:00;;;;;;;1.72;1.10;;;3.40;78.60;;;;;;1924804;74;21034;-43
2022/01/15 08:30:29;;;;;;;3.60;1.30;;;3.40;78.30;;;;;;1924711;74;21084;-43
2022/01/15 08:32:58;;;;;;;4.75;2.08;;;3.40;78.50;;;;;;1924689;74;21023;-42
2022/01/15 08:35:28;;;;;;;6.67;1.47;;;3.30;78.10;;;;;;1924660;74;21108;-42
2022/01/15 08:38:03;;;;;;;3.12;1.45;;;3.40;77.70;;;;;;1924724;74;21080;-43
2022/01/15 08:40:28;;;;;;;12.58;4.80;;;3.30;76.80;;;;;;1923004;74;21473;-43
2022/01/15 08:42:58;;;;;;;4.25;2.67;;;3.40;76.60;;;;;;1924662;74;21089;-43
2022/01/15 08:45:27;;;;;;;2.87;1.65;;;3.40;76.50;;;;;;1924674;74;21140;-42
2022/01/15 08:47:57;;;;;;;3.30;1.90;;;3.50;76.50;;;;;;1924826;74;21023;-43
2022/01/15 08:50:26;;;;;;;2.10;1.27;;;3.50;75.40;;;;;;1924696;74;21023;-43
2022/01/15 08:52:56;;;;;;;6.28;1.60;;;3.50;75.70;;;;;;1924780;74;21575;-43
2022/01/15 08:55:30;;;;;;;1.42;1.32;;;3.50;77.20;;;;;;1924819;74;21129;-43
2022/01/15 08:57:57;;;;;;;2.08;1.72;;;3.50;77.70;;;;;;1923390;74;20999;-43
2022/01/15 09:00:28;;;;;;;3.30;1.42;;;3.40;77.20;;;;;;1924805;74;21076;-42
2022/01/15 09:02:57;;;;;;;3.02;1.10;;;3.50;77.10;;;;;;1924793;74;21089;-43
2022/01/15 09:05:27;;;;;;;1.45;1.35;;;3.40;76.50;;;;;;1924770;74;20994;-43
2022/01/15 09:07:56;;;;;;;2.52;2.15;;;3.40;77.50;;;;;;1924690;74;21179;-43
2022/01/15 09:10:26;;;;;;;2.80;1.85;;;3.40;77.90;;;;;;1924837;74;21023;-44
2022/01/15 09:12:55;;;;;;;3.87;1.42;;;3.50;78.10;;;;;;1924653;74;21058;-43
2022/01/15 09:15:25;;;;;;;4.03;1.52;;;3.50;77.80;;;;;;1924667;74;21092;-42
2022/01/15 09:17:54;;;;;;;2.50;1.50;;;3.60;76.50;;;;;;1924641;74;21125;-43
2022/01/15 09:20:24;;;;;;;2.37;1.22;;;3.50;76.90;;;;;;1924640;74;21026;-42
2022/01/15 09:22:55;;;;;;;3.55;1.30;;;3.50;78.30;;;;;;1924655;74;21058;-44
2022/01/15 09:25:25;;;;;;;2.42;1.75;;;3.40;78.10;;;;;;1924670;74;21047;-43
2022/01/15 09:30:45;;;;;;;3.00;1.35;;;3.40;78.90;;;;;;1924955;74;21085;-44
2022/01/15 09:33:15;;;;;;;1.98;1.25;;;3.40;78.80;;;;;;1924773;74;21014;-42
2022/01/15 09:35:45;;;;;;;1.62;1.52;;;3.40;79.50;;;;;;1924685;74;21019;-43
2022/01/15 09:38:15;;;;;;;3.45;1.50;;;3.50;77.90;;;;;;1924833;74;21039;-43
2022/01/15 09:40:45;;;;;;;4.05;1.60;;;3.50;77.70;;;;;;1924682;74;21081;-43
2022/01/15 09:43:15;;;;;;;2.17;1.30;;;3.60;78.10;;;;;;1924614;74;21011;-42
2022/01/15 09:45:45;;;;;;;3.37;1.32;;;3.60;77.40;;;;;;1924824;74;21023;-44
2022/01/15 09:48:16;;;;;;;1.92;1.47;;;3.60;77.50;;;;;;1924797;74;21080;-44
2022/01/15 09:50:46;;;;;;;4.00;1.40;;;3.60;77.90;;;;;;1924859;74;21011;-43
2022/01/15 09:53:16;;;;;;;3.40;1.52;;;3.60;78.10;;;;;;1924687;74;21022;-43
2022/01/15 09:55:47;;;;;;;2.65;1.40;;;3.60;76.10;;;;;;1924732;74;21042;-42
2022/01/15 09:58:17;;;;;;;2.67;2.47;;;3.60;76.40;;;;;;1924685;74;21047;-42
2022/01/15 10:00:47;;;;;;;6.22;1.15;;;3.60;76.60;;;;;;1924816;74;21022;-44
2022/01/15 10:03:16;;;;;;;1.60;1.20;;;3.50;76.10;;;;;;1924585;74;21022;-43
2022/01/15 10:05:47;;;;;;;1.40;1.10;;;3.50;77.20;;;;;;1924759;74;21092;-44
2022/01/15 10:08:21;;;;;;;3.15;1.15;;;3.40;75.80;;;;;;1924632;74;21088;-44
2022/01/15 10:10:53;;;;;;;4.95;1.72;;;3.40;76.60;;;;;;1924997;74;21042;-43
2022/01/15 10:13:24;;;;;;;7.03;1.42;;;3.40;78.30;;;;;;1924794;74;20994;-44
2022/01/15 10:16:05;;;;;;;1.25;1.15;;;3.30;79.90;;;;;;1924532;74;21070;-42
2022/01/15 10:18:36;;;;;;;1.30;1.20;;;3.20;80.50;;;;;;1924610;74;21018;-43
2022/01/15 10:21:13;;;;;;;0.95;0.95;;;3.10;80.80;;;;;;1924613;74;21023;-43
2022/01/15 10:23:54;;;;;;;3.27;1.62;;;3.10;81.40;;;;;;1924667;74;21485;-44
2022/01/15 10:26:26;;;;;;;3.67;2.95;;;3.00;81.20;;;;;;1924653;74;20991;-43
2022/01/15 10:29:05;;;;;;;4.97;1.67;;;3.10;80.70;;;;;;1924259;74;21121;-43
2022/01/15 10:31:43;;;;;;;4.30;1.57;;;3.10;80.20;;;;;;1924249;74;21445;-43
2022/01/15 10:34:26;;;;;;;2.52;1.40;;;3.20;80.30;;;;;;1924642;74;20991;-43
2022/01/15 10:37:13;;;;;;;1.45;1.30;;;3.30;78.60;;;;;;1924605;74;21055;-45
2022/01/15 10:39:45;;;;;;;7.42;3.62;;;3.40;77.60;;;;;;1924344;74;21418;-43
2022/01/15 10:42:23;;;;;;;5.17;1.90;;;3.40;78.80;;;;;;1916473;74;21473;-46
2022/01/15 10:44:49;;;;;;;3.60;1.40;;;3.30;79.30;;;;;;1924385;74;21042;-43
2022/01/15 10:47:19;;;;;;;2.87;1.72;;;3.30;79.00;;;;;;1924644;74;21022;-42
2022/01/15 10:49:49;;;;;;;4.75;1.50;;;3.20;78.50;;;;;;1924750;74;21068;-43
2022/01/15 10:52:23;;;;;;;1.22;1.07;;;3.20;76.40;;;;;;1924865;74;21054;-42
2022/01/15 10:55:04;;;;;;;1.10;0.90;;;3.30;76.20;;;;;;1924900;74;21069;-42
2022/01/15 10:57:36;;;;;;;2.50;1.40;;;3.30;76.00;;;;;;1888063;76;21084;-43
2022/01/15 11:00:23;;;;;;;3.67;1.57;;;3.30;74.90;;;;;;1878157;76;21059;-44
2022/01/15 11:03:01;;;;;;;5.10;2.00;;;3.30;76.30;;;;;;1876951;76;21439;-43
2022/01/15 11:05:33;;;;;;;5.25;1.92;;;3.30;76.90;;;;;;1876980;76;21113;-42
2022/01/15 11:08:23;;;;;;;1.67;1.20;;;3.30;75.90;;;;;;1877962;76;21043;-42
2022/01/15 11:10:57;;;;;;;2.20;1.32;;;3.30;75.20;;;;;;1877430;76;21070;-43
2022/01/15 11:13:32;;;;;;;1.70;1.20;;;3.20;75.50;;;;;;1878299;76;21050;-43
2022/01/15 11:16:08;;;;;;;2.62;1.65;;;3.20;76.10;;;;;;1878151;76;21558;-42
2022/01/15 11:18:39;;;;;;;3.42;1.30;;;3.20;75.60;;;;;;1877521;76;21059;-43
2022/01/15 11:21:10;;;;;;;11.63;1.55;;;3.20;75.70;;;;;;1877999;76;21110;-42
2022/01/15 11:23:42;;;;;;;1.98;1.65;;;3.20;76.00;;;;;;1878151;76;21104;-43
2022/01/15 11:26:13;;;;;;;1.70;1.50;;;3.20;76.00;;;;;;1878209;76;21039;-43
2022/01/15 11:28:43;;;;;;;1.50;1.10;;;3.10;76.20;;;;;;1878191;76;21107;-42
2022/01/15 11:31:15;;;;;;;3.05;1.55;;;3.10;75.50;;;;;;1878168;76;21154;-42
2022/01/15 11:33:50;;;;;;;1.42;1.15;;;3.10;75.90;;;;;;1877341;76;21553;-42
2022/01/15 11:36:30;;;;;;;1.95;1.80;;;3.20;76.10;;;;;;1878111;76;21038;-42
2022/01/15 11:39:03;;;;;;;3.92;2.15;;;3.20;75.80;;;;;;1869880;76;21145;-44
2022/01/15 11:41:35;;;;;;;1.00;1.00;;;3.20;75.50;;;;;;1871238;77;21031;-43
2022/01/15 11:44:12;;;;;;;3.92;1.32;;;3.20;75.90;;;;;;1871154;77;21042;-43
2022/01/15 11:46:54;;;;;;;7.42;2.02;;;3.30;75.40;;;;;;1871323;77;21089;-44
2022/01/15 11:49:41;;;;;;;5.37;1.98;;;3.30;75.70;;;;;;1871232;77;21128;-42
2022/01/15 11:52:13;;;;;;;2.27;1.50;;;3.30;76.50;;;;;;1871162;77;21129;-42
2022/01/15 11:54:54;;;;;;;1.98;1.47;;;3.30;77.00;;;;;;1871351;77;21027;-42
2022/01/15 11:57:32;;;;;;;1.10;1.00;;;3.20;77.20;;;;;;1867852;77;21093;-45
2022/01/15 12:00:04;;;;;;;6.33;1.27;;;3.20;77.40;;;;;;1871390;77;21042;-43
2022/01/15 12:02:35;;;;;;;2.95;1.80;;;3.20;76.50;;;;;;1871303;77;21051;-42
2022/01/15 12:05:19;;;;;;;2.83;1.52;;;3.30;76.70;;;;;;1871242;77;21039;-42
2022/01/15 12:08:03;;;;;;;4.33;2.03;;;3.30;76.60;;;;;;1871583;77;21399;-41
2022/01/15 12:10:45;;;;;;;3.35;1.60;;;3.40;77.30;;;;;;1859074;77;21097;-43
2022/01/15 12:13:18;;;;;;;1.60;1.20;;;3.50;76.30;;;;;;1871239;77;21082;-42
2022/01/15 12:15:52;;;;;;;2.60;1.20;;;3.50;76.10;;;;;;1871247;77;21117;-43
2022/01/15 12:18:23;;;;;;;2.45;1.15;;;3.60;76.80;;;;;;1853320;77;21489;-42
2022/01/15 12:20:54;;;;;;;4.97;1.85;;;3.60;75.50;;;;;;1871186;77;21042;-43
2022/01/15 12:23:26;;;;;;;3.20;1.47;;;3.60;75.50;;;;;;1871149;77;21035;-44
2022/01/15 12:25:56;;;;;;;1.82;1.27;;;3.60;76.50;;;;;;1871240;77;21062;-42
2022/01/15 12:28:27;;;;;;;1.15;1.05;;;3.60;76.40;;;;;;1871268;77;21101;-42
2022/01/15 12:30:58;;;;;;;3.27;1.20;;;3.60;76.80;;;;;;1871543;77;21096;-42
2022/01/15 12:33:28;;;;;;;1.90;1.30;;;3.60;76.70;;;;;;1871443;77;21035;-43
2022/01/15 12:35:57;;;;;;;2.40;1.27;;;3.50;77.30;;;;;;1871478;77;21039;-43
2022/01/15 12:38:28;;;;;;;3.00;1.50;;;3.40;75.80;;;;;;1871365;77;21156;-42
2022/01/15 12:41:04;;;;;;;3.37;1.47;;;3.40;76.30;;;;;;1871414;76;21449;-42
2022/01/15 12:43:36;;;;;;;1.45;1.35;;;3.40;77.10;;;;;;1871015;76;21023;-43
2022/01/15 12:46:07;;;;;;;5.03;1.72;;;3.30;77.30;;;;;;1870667;77;21051;-42
2022/01/15 12:48:39;;;;;;;1.65;0.88;;;3.30;77.50;;;;;;1871382;77;21039;-43
2022/01/15 12:51:11;;;;;;;2.77;1.20;;;3.30;77.30;;;;;;1871572;77;21050;-42
2022/01/15 12:53:43;;;;;;;1.52;1.20;;;3.20;77.70;;;;;;1871434;76;21039;-42
2022/01/15 12:56:15;;;;;;;2.40;1.62;;;3.30;78.10;;;;;;1871750;77;21043;-43
2022/01/15 12:58:45;;;;;;;9.50;4.67;;;3.30;78.30;;;;;;1871287;77;21070;-42
2022/01/15 13:01:17;;;;;;;2.47;1.50;;;3.30;78.00;;;;;;1871330;77;21099;-43
2022/01/15 13:03:46;;;;;;;1.70;1.42;;;3.20;78.10;;;;;;1843566;76;21111;-42
2022/01/15 13:06:15;;;;;;;1.42;1.27;;;3.30;78.10;;;;;;1924384;74;21579;-43
2022/01/15 13:08:45;;;;;;;6.05;1.70;;;3.30;78.00;;;;;;1924360;74;21043;-42
2022/01/15 13:11:20;;;;;;;2.02;1.27;;;3.30;78.40;;;;;;1924396;74;21034;-44
2022/01/15 13:13:51;;;;;;;2.10;1.50;;;3.30;78.40;;;;;;1924058;74;21465;-42
2022/01/15 13:16:23;;;;;;;1.82;1.02;;;3.30;78.20;;;;;;1924482;74;21019;-43
2022/01/15 13:18:57;;;;;;;1.90;1.25;;;3.30;76.90;;;;;;1924270;74;21035;-42
2022/01/15 13:21:31;;;;;;;3.40;1.30;;;3.30;76.90;;;;;;1924376;74;21015;-44
2022/01/15 13:24:10;;;;;;;3.27;1.50;;;3.30;76.70;;;;;;1924712;74;21116;-44
2022/01/15 13:26:45;;;;;;;1.25;1.12;;;3.30;77.50;;;;;;1924480;74;21092;-43
2022/01/15 13:29:19;;;;;;;1.10;0.95;;;3.20;77.10;;;;;;1924468;74;21070;-43
2022/01/15 13:31:49;;;;;;;1.77;1.00;;;3.20;76.80;;;;;;1924417;74;21441;-42
2022/01/15 13:34:26;;;;;;;2.05;0.98;;;3.20;77.00;;;;;;1924349;74;21038;-43
2022/01/15 13:36:55;;;;;;;2.83;0.90;;;3.20;75.70;;;;;;1924384;74;21034;-43